createdAt,value
2019-03-22T00:00:25.926Z,1014.00
2019-03-22T00:01:25.897Z,1013.95
2019-03-22T00:02:25.906Z,1013.93
2019-03-22T00:03:25.877Z,1013.96
2019-03-22T00:04:25.876Z,1013.96
2019-03-22T00:05:25.910Z,1013.99
2019-03-22T00:06:25.841Z,1013.96
2019-03-22T00:07:25.850Z,1013.93
2019-03-22T00:08:25.841Z,1013.99
2019-03-22T00:09:25.812Z,1013.97
2019-03-22T00:10:25.805Z,1014.04
2019-03-22T00:11:25.810Z,1013.95
2019-03-22T00:12:25.782Z,1013.89
2019-03-22T00:13:25.790Z,1013.93
2019-03-22T00:14:25.761Z,1013.90
2019-03-22T00:15:25.750Z,1013.95
2019-03-22T00:16:25.736Z,1013.90
2019-03-22T00:17:25.729Z,1013.93
2019-03-22T00:18:25.728Z,1013.94
2019-03-22T00:19:25.716Z,1013.89
2019-03-22T00:20:25.697Z,1013.90
2019-03-22T00:21:25.685Z,1013.87
2019-03-22T00:22:25.695Z,1013.84
2019-03-22T00:23:25.663Z,1013.89
2019-03-22T00:24:25.664Z,1013.88
2019-03-22T00:25:25.638Z,1013.84
2019-03-22T00:26:25.651Z,1013.94
2019-03-22T00:27:25.615Z,1013.86
2019-03-22T00:28:25.625Z,1013.93
2019-03-22T00:29:25.601Z,1013.95
2019-03-22T05:00:45.856Z,1013.18
2019-03-22T05:01:45.840Z,1013.25
2019-03-22T05:02:45.844Z,1013.21
2019-03-22T05:03:45.820Z,1013.13
2019-03-22T05:04:45.819Z,1013.16
2019-03-22T05:05:45.798Z,1013.20
2019-03-22T05:06:45.791Z,1013.15
2019-03-22T05:07:45.790Z,1013.23
2019-03-22T05:08:45.763Z,1013.21
2019-03-22T05:09:53.303Z,1013.21
2019-03-22T05:10:45.739Z,1013.19
2019-03-22T05:11:45.737Z,1013.21
2019-03-22T05:12:45.721Z,1013.26
2019-03-22T05:13:45.728Z,1013.20
2019-03-22T05:14:45.701Z,1013.24
2019-03-22T05:15:45.703Z,1013.23
2019-03-22T05:16:45.675Z,1013.18
2019-03-22T05:17:45.677Z,1013.21
2019-03-22T05:18:45.655Z,1013.20
2019-03-22T05:19:45.644Z,1013.13
2019-03-22T05:20:45.644Z,1013.24
2019-03-22T05:21:45.647Z,1013.17
2019-03-22T05:22:45.635Z,1013.13
2019-03-22T05:23:45.600Z,1013.17
2019-03-22T05:24:45.596Z,1013.12
2019-03-22T05:25:45.585Z,1013.08
2019-03-22T05:26:45.643Z,1013.17
2019-03-22T05:27:45.577Z,1013.07
2019-03-22T05:28:45.544Z,1013.09
2019-03-22T05:29:45.532Z,1013.09
2019-03-22T05:30:45.806Z,1013.08
2019-03-22T05:31:45.584Z,1013.08
2019-03-22T05:32:45.876Z,1013.11
2019-03-22T05:33:45.528Z,1013.15
2019-03-22T05:34:45.546Z,1013.07
2019-03-22T05:35:45.660Z,1013.13
2019-03-22T05:36:45.458Z,1013.09
2019-03-22T05:37:45.487Z,1013.10
2019-03-22T05:38:45.434Z,1013.11
2019-03-22T05:39:45.473Z,1013.17
2019-03-22T05:40:45.418Z,1013.15
2019-03-22T05:41:45.444Z,1013.11
2019-03-22T05:42:45.411Z,1013.18
2019-03-22T05:43:45.387Z,1013.10
2019-03-22T05:44:45.416Z,1013.12
2019-03-22T05:45:45.370Z,1013.16
2019-03-22T05:46:45.360Z,1013.17
2019-03-22T05:47:45.355Z,1013.16
2019-03-22T05:48:45.910Z,1013.18
2019-03-22T05:49:45.342Z,1013.22
2019-03-22T05:50:45.345Z,1013.16
2019-03-22T05:51:45.310Z,1013.23
2019-03-22T05:52:45.303Z,1013.20
2019-03-22T05:53:45.279Z,1013.17
2019-03-22T05:54:45.288Z,1013.14
2019-03-22T05:55:45.295Z,1013.13
2019-03-22T05:56:45.242Z,1013.10
2019-03-22T05:57:45.232Z,1013.12
2019-03-22T05:58:45.229Z,1013.17
2019-03-22T05:59:45.213Z,1013.05
2019-03-22T06:00:45.212Z,1013.15
2019-03-22T06:01:45.545Z,1013.21
2019-03-22T06:02:45.178Z,1013.19
2019-03-22T06:03:45.173Z,1013.21
2019-03-22T06:04:45.164Z,1013.20
2019-03-22T06:05:45.172Z,1013.27
2019-03-22T06:06:45.152Z,1013.15
2019-03-22T06:07:45.135Z,1013.21
2019-03-22T06:08:45.122Z,1013.19
2019-03-22T06:09:45.124Z,1013.14
2019-03-22T06:10:45.112Z,1013.16
2019-03-22T06:11:45.084Z,1013.14
2019-03-22T06:12:45.096Z,1013.16
2019-03-22T06:13:45.092Z,1013.19
2019-03-22T06:14:45.075Z,1013.17
2019-03-22T06:15:45.109Z,1013.19
2019-03-22T06:16:45.052Z,1013.25
2019-03-22T06:17:51.751Z,1013.22
2019-03-22T06:18:46.096Z,1013.21
2019-03-22T06:19:45.001Z,1013.17
2019-03-22T06:20:45.004Z,1013.19
2019-03-22T06:21:44.991Z,1013.25
2019-03-22T06:22:44.981Z,1013.30
2019-03-22T06:23:44.961Z,1013.21
2019-03-22T06:24:44.953Z,1013.24
2019-03-22T06:25:46.523Z,1013.23
2019-03-22T06:26:45.057Z,1013.23
2019-03-22T06:27:47.356Z,1013.18
2019-03-22T06:28:47.456Z,1013.31
2019-03-22T06:29:53.562Z,1013.28
2019-03-22T06:30:45.890Z,1013.25
2019-03-22T06:31:44.890Z,1013.35
2019-03-22T06:32:44.862Z,1013.28
2019-03-22T06:33:44.849Z,1013.25
2019-03-22T06:34:44.843Z,1013.29
2019-03-22T06:35:44.828Z,1013.30
2019-03-22T06:36:44.833Z,1013.28
2019-03-22T06:37:44.827Z,1013.35
2019-03-22T06:38:44.814Z,1013.28
2019-03-22T06:39:44.787Z,1013.25
2019-03-22T06:40:44.775Z,1013.30
2019-03-22T06:41:44.796Z,1013.31
2019-03-22T06:42:44.752Z,1013.32
2019-03-22T06:43:44.781Z,1013.24
2019-03-22T06:44:44.748Z,1013.27
2019-03-22T06:45:44.724Z,1013.27
2019-03-22T06:46:44.729Z,1013.27
2019-03-22T06:47:44.703Z,1013.37
2019-03-22T07:00:09.980Z,1013.47
2019-03-22T07:01:06.159Z,1013.46
2019-03-22T07:04:43.362Z,1013.56
2019-03-22T07:05:42.774Z,1013.51
2019-03-22T07:06:43.583Z,1013.45
2019-03-22T07:07:42.750Z,1013.44
2019-03-22T07:08:43.640Z,1013.46
2019-03-22T07:11:52.090Z,1013.53
2019-03-22T07:12:52.087Z,1013.57
2019-03-22T07:26:45.743Z,1013.59
2019-03-22T07:27:45.721Z,1013.57
2019-03-22T07:28:45.774Z,1013.55
2019-03-22T07:29:45.756Z,1013.57
2019-03-22T07:30:46.355Z,1013.51
2019-03-22T07:31:45.489Z,1013.54
2019-03-22T07:32:45.500Z,1013.59
2019-03-22T07:33:45.491Z,1013.47
2019-03-22T07:34:45.474Z,1013.49
2019-03-22T07:35:45.451Z,1013.44
2019-03-22T07:36:47.026Z,1013.47
2019-03-22T07:37:45.457Z,1013.49
2019-03-22T07:38:45.636Z,1013.53
2019-03-22T07:39:45.416Z,1013.47
2019-03-22T07:40:45.389Z,1013.49
2019-03-22T07:41:45.397Z,1013.50
2019-03-22T07:42:45.403Z,1013.59
2019-03-22T07:43:45.362Z,1013.51
2019-03-22T07:44:45.350Z,1013.60
2019-03-22T07:45:45.334Z,1013.49
2019-03-22T07:46:45.320Z,1013.52
2019-03-22T07:47:45.369Z,1013.54
2019-03-22T07:48:45.322Z,1013.52
2019-03-22T07:49:45.294Z,1013.53
2019-03-22T07:50:45.285Z,1013.54
2019-03-22T07:51:45.271Z,1013.57
2019-03-22T07:52:45.262Z,1013.55
2019-03-22T07:53:45.267Z,1013.52
2019-03-22T07:54:45.243Z,1013.49
2019-03-22T07:55:45.227Z,1013.52
2019-03-22T07:56:45.218Z,1013.59
2019-03-22T07:57:45.202Z,1013.61
2019-03-22T07:58:45.206Z,1013.60
2019-03-22T07:59:45.186Z,1013.61
2019-03-22T08:00:45.177Z,1013.59
2019-03-22T08:01:45.191Z,1013.54
2019-03-22T08:02:45.155Z,1013.57
2019-03-22T08:03:45.136Z,1013.53
2019-03-22T08:04:45.135Z,1013.55
2019-03-22T08:05:51.022Z,1013.61
2019-03-22T08:06:46.124Z,1013.51
2019-03-22T08:07:45.093Z,1013.55
2019-03-22T08:08:45.095Z,1013.56
2019-03-22T08:09:45.120Z,1013.60
2019-03-22T08:10:45.080Z,1013.53
2019-03-22T08:11:45.053Z,1013.51
2019-03-22T08:12:45.086Z,1013.52
2019-03-22T08:13:45.031Z,1013.57
2019-03-22T08:14:45.023Z,1013.56
2019-03-22T08:15:45.005Z,1013.56
2019-03-22T08:16:45.005Z,1013.64
2019-03-22T08:17:45.017Z,1013.62
2019-03-22T08:18:44.985Z,1013.55
2019-03-22T08:19:44.971Z,1013.63
2019-03-22T08:20:44.957Z,1013.58
2019-03-22T08:21:44.973Z,1013.61
2019-03-22T08:22:44.934Z,1013.55
2019-03-22T08:23:44.961Z,1013.61
2019-03-22T08:24:44.935Z,1013.55
2019-03-22T08:25:44.916Z,1013.51
2019-03-22T08:26:44.918Z,1013.60
2019-03-22T08:27:44.883Z,1013.54
2019-03-22T08:28:44.883Z,1013.51
2019-03-22T08:29:44.877Z,1013.56
2019-03-22T08:30:44.869Z,1013.56
2019-03-22T08:31:52.409Z,1013.56
2019-03-22T08:32:52.364Z,1013.53
2019-03-22T08:33:53.639Z,1013.59
2019-03-22T08:34:52.367Z,1013.53
2019-03-22T08:35:44.807Z,1013.53
2019-03-22T08:36:44.786Z,1013.55
2019-03-22T08:37:52.630Z,1013.60
2019-03-22T08:39:55.918Z,1013.49
2019-03-22T08:42:02.910Z,1013.44
2019-03-22T08:43:02.918Z,1013.41
2019-03-22T08:44:03.159Z,1013.44
2019-03-22T08:45:02.904Z,1013.55
2019-03-22T08:46:02.889Z,1013.55
2019-03-22T08:47:02.903Z,1013.62
2019-03-22T08:48:02.918Z,1013.54
2019-03-22T08:49:02.926Z,1013.54
2019-03-22T08:50:02.864Z,1013.54
2019-03-22T08:51:02.812Z,1013.58
2019-03-22T08:52:02.824Z,1013.58
2019-03-22T08:53:02.798Z,1013.53
2019-03-22T08:54:02.796Z,1013.47
2019-03-22T08:55:02.771Z,1013.51
2019-03-22T08:56:02.797Z,1013.49
2019-03-22T08:57:02.795Z,1013.39
2019-03-22T08:58:02.760Z,1013.37
2019-03-22T08:59:02.746Z,1013.34
2019-03-22T09:00:02.740Z,1013.45
2019-03-22T09:01:02.749Z,1013.51
2019-03-22T09:02:02.712Z,1013.40
2019-03-22T09:03:02.747Z,1013.48
2019-03-22T09:04:02.723Z,1013.39
2019-03-22T09:05:02.662Z,1013.42
2019-03-22T09:06:02.671Z,1013.34
2019-03-22T09:07:02.658Z,1013.39
2019-03-22T09:08:02.640Z,1013.31
2019-03-22T09:09:02.692Z,1013.31
2019-03-22T09:10:02.615Z,1013.27
2019-03-22T09:11:02.621Z,1013.16
2019-03-22T09:12:02.624Z,1013.18
2019-03-22T09:13:02.592Z,1013.22
2019-03-22T09:14:02.564Z,1013.13
2019-03-22T09:15:02.576Z,1013.19
2019-03-22T09:16:02.562Z,1013.23
2019-03-22T09:17:02.559Z,1013.19
2019-03-22T09:18:02.573Z,1013.15
2019-03-22T09:19:02.534Z,1013.16
2019-03-22T09:20:02.549Z,1013.17
2019-03-22T09:21:02.527Z,1013.16
2019-03-22T09:22:02.486Z,1013.13
2019-03-22T09:23:02.522Z,1013.15
2019-03-22T09:24:02.519Z,1013.11
2019-03-22T09:25:02.491Z,1013.06
2019-03-22T09:26:02.473Z,1013.07
2019-03-22T09:27:02.424Z,1013.08
2019-03-22T09:28:02.425Z,1012.97
2019-03-22T09:29:02.415Z,1013.03
2019-03-22T09:30:02.448Z,1013.09
2019-03-22T09:31:10.142Z,1013.06
2019-03-22T09:32:03.408Z,1013.03
2019-03-22T09:33:02.373Z,1013.07
2019-03-22T09:34:02.356Z,1013.02
2019-03-22T09:35:02.341Z,1013.05
2019-03-22T09:36:02.369Z,1013.00
2019-03-22T09:37:02.317Z,1012.99
2019-03-22T09:38:12.416Z,1013.02
2019-03-22T09:39:03.302Z,1013.02
2019-03-22T09:40:02.311Z,1013.02
2019-03-22T09:41:02.279Z,1013.00
2019-03-22T09:42:02.283Z,1013.02
2019-03-22T09:43:02.287Z,1012.93
2019-03-22T09:44:02.280Z,1012.91
2019-03-22T09:45:02.244Z,1012.93
2019-03-22T09:46:02.237Z,1013.02
2019-03-22T09:47:02.225Z,1012.95
2019-03-22T09:48:02.195Z,1012.94
2019-03-22T09:49:02.280Z,1012.99
2019-03-22T09:50:02.207Z,1012.95
2019-03-22T09:51:02.301Z,1012.89
2019-03-22T09:52:02.196Z,1012.95
2019-03-22T09:53:02.204Z,1012.89
2019-03-22T09:54:02.152Z,1012.96
2019-03-22T09:55:12.642Z,1012.84
2019-03-22T09:56:03.111Z,1012.80
2019-03-22T09:57:02.120Z,1012.83
2019-03-22T09:58:02.154Z,1012.83
2019-03-22T09:59:02.078Z,1012.80
2019-03-22T10:00:02.104Z,1012.81
2019-03-22T10:01:02.139Z,1012.91
2019-03-22T10:02:02.066Z,1012.70
2019-03-22T10:03:02.089Z,1012.70
2019-03-22T10:04:02.186Z,1012.69
2019-03-22T10:05:02.143Z,1012.77
2019-03-22T10:06:02.025Z,1012.66
2019-03-22T10:07:01.993Z,1012.64
2019-03-22T10:08:01.987Z,1012.62
2019-03-22T10:09:05.356Z,1012.65
2019-03-22T10:10:01.989Z,1012.67
2019-03-22T10:11:02.006Z,1012.70
2019-03-22T10:12:01.936Z,1012.61
2019-03-22T10:14:12.093Z,1012.65
2019-03-22T10:15:11.246Z,1012.61
2019-03-22T10:16:11.273Z,1012.56
2019-03-22T10:17:11.259Z,1012.55
2019-03-22T10:18:11.216Z,1012.51
2019-03-22T10:19:11.227Z,1012.49
2019-03-22T10:20:11.187Z,1012.54
2019-03-22T10:21:21.840Z,1012.55
2019-03-22T10:22:12.203Z,1012.48
2019-03-22T10:23:11.242Z,1012.50
2019-03-22T10:24:11.171Z,1012.49
2019-03-22T10:25:11.171Z,1012.50
2019-03-22T10:26:11.137Z,1012.39
2019-03-22T10:27:11.273Z,1012.43
2019-03-22T10:28:11.111Z,1012.42
2019-03-22T10:29:11.087Z,1012.40
2019-03-22T10:30:11.094Z,1012.48
2019-03-22T10:31:11.063Z,1012.40
2019-03-22T10:32:11.056Z,1012.39
2019-03-22T10:33:22.136Z,1012.41
2019-03-22T10:34:12.031Z,1012.36
2019-03-22T10:35:11.025Z,1012.38
2019-03-22T10:36:11.027Z,1012.37
2019-03-22T10:37:11.037Z,1012.34
2019-03-22T10:38:16.494Z,1012.35
2019-03-22T10:39:12.092Z,1012.30
2019-03-22T10:40:10.982Z,1012.32
2019-03-22T10:41:10.956Z,1012.29
2019-03-22T10:42:10.955Z,1012.25
2019-03-22T10:43:10.970Z,1012.23
2019-03-22T10:44:11.000Z,1012.28
2019-03-22T10:45:10.922Z,1012.28
2019-03-22T10:46:10.910Z,1012.23
2019-03-22T10:47:10.918Z,1012.31
2019-03-22T10:48:10.880Z,1012.27
2019-03-22T10:49:10.883Z,1012.28
2019-03-22T10:50:10.901Z,1012.22
2019-03-22T10:51:10.892Z,1012.18
2019-03-22T10:52:10.850Z,1012.18
2019-03-22T10:53:10.824Z,1012.14
2019-03-22T10:54:10.814Z,1012.23
2019-03-22T10:55:28.380Z,1012.18
2019-03-22T10:56:11.805Z,1012.16
2019-03-22T10:57:10.787Z,1012.21
2019-03-22T10:58:21.020Z,1012.18
2019-03-22T10:59:11.764Z,1012.15
2019-03-22T11:00:10.748Z,1012.15
2019-03-22T11:01:10.782Z,1012.17
2019-03-22T11:02:10.731Z,1012.13
2019-03-22T11:03:10.723Z,1012.11
2019-03-22T11:04:10.717Z,1012.08
2019-03-22T11:05:10.702Z,1012.05
2019-03-22T11:06:10.701Z,1011.97
2019-03-22T11:07:10.698Z,1012.02
2019-03-22T11:08:10.667Z,1011.97
2019-03-22T11:09:11.380Z,1012.00
2019-03-22T11:10:11.829Z,1011.96
2019-03-22T11:11:10.666Z,1011.97
2019-03-22T11:12:12.370Z,1011.99
2019-03-22T11:13:10.612Z,1012.00
2019-03-22T11:14:10.598Z,1011.96
2019-03-22T11:15:10.597Z,1011.98
2019-03-22T11:16:10.583Z,1011.97
2019-03-22T11:17:10.631Z,1011.93
2019-03-22T11:18:10.569Z,1011.97
2019-03-22T11:19:10.548Z,1011.96
2019-03-22T11:20:10.536Z,1011.94
2019-03-22T11:21:10.529Z,1011.98
2019-03-22T11:22:10.522Z,1011.96
2019-03-22T11:23:10.526Z,1011.96
2019-03-22T11:24:10.503Z,1011.98
2019-03-22T11:25:10.492Z,1011.87
2019-03-22T11:26:10.479Z,1011.94
2019-03-22T11:27:10.481Z,1011.87
2019-03-22T11:28:12.019Z,1011.93
2019-03-22T11:29:10.453Z,1011.83
2019-03-22T11:30:10.434Z,1011.90
2019-03-22T11:31:10.432Z,1011.86
2019-03-22T11:32:12.871Z,1011.91
2019-03-22T11:33:10.415Z,1011.86
2019-03-22T11:34:10.398Z,1011.83
2019-03-22T11:35:10.383Z,1011.84
2019-03-22T11:36:10.372Z,1011.78
2019-03-22T11:37:10.375Z,1011.86
2019-03-22T11:38:10.358Z,1011.82
2019-03-22T11:39:15.541Z,1011.75
2019-03-22T11:40:11.346Z,1011.73
2019-03-22T11:41:10.319Z,1011.67
2019-03-22T11:42:10.311Z,1011.66
2019-03-22T11:43:10.318Z,1011.67
2019-03-22T11:44:10.298Z,1011.64
2019-03-22T11:45:10.273Z,1011.60
2019-03-22T11:46:10.264Z,1011.60
2019-03-22T11:47:10.288Z,1011.61
2019-03-22T11:48:10.240Z,1011.60
2019-03-22T11:49:10.246Z,1011.56
2019-03-22T11:50:10.218Z,1011.58
2019-03-22T11:51:10.230Z,1011.52
2019-03-22T11:52:10.197Z,1011.54
2019-03-22T11:53:10.208Z,1011.51
2019-03-22T11:54:10.180Z,1011.52
2019-03-22T11:55:10.167Z,1011.60
2019-03-22T11:56:10.160Z,1011.57
2019-03-22T11:57:10.146Z,1011.53
2019-03-22T11:58:10.137Z,1011.41
2019-03-22T11:59:10.133Z,1011.51
2019-03-22T12:00:10.111Z,1011.48
2019-03-22T12:01:19.114Z,1011.47
2019-03-22T12:02:11.093Z,1011.41
2019-03-22T12:03:10.084Z,1011.40
2019-03-22T12:04:11.864Z,1011.49
2019-03-22T12:05:10.091Z,1011.38
2019-03-22T12:06:10.049Z,1011.35
2019-03-22T12:07:10.040Z,1011.39
2019-03-22T12:08:10.028Z,1011.34
2019-03-22T12:09:10.029Z,1011.30
2019-03-22T12:10:10.017Z,1011.34
2019-03-22T12:11:10.005Z,1011.34
2019-03-22T12:12:09.989Z,1011.32
2019-03-22T12:13:09.986Z,1011.19
2019-03-22T12:14:09.964Z,1011.20
2019-03-22T12:15:09.961Z,1011.16
2019-03-22T12:16:09.963Z,1011.18
2019-03-22T12:17:09.933Z,1011.08
2019-03-22T12:18:09.923Z,1011.10
2019-03-22T12:19:09.913Z,1011.20
2019-03-22T12:20:09.901Z,1011.13
2019-03-22T12:21:09.915Z,1011.02
2019-03-22T12:22:09.877Z,1011.01
2019-03-22T12:23:09.863Z,1011.02
2019-03-22T12:24:09.857Z,1010.96
2019-03-22T12:25:09.873Z,1011.04
2019-03-22T12:26:09.843Z,1011.04
2019-03-22T12:27:09.827Z,1010.97
2019-03-22T12:28:09.816Z,1011.02
2019-03-22T12:29:09.802Z,1010.97
2019-03-22T12:30:09.792Z,1010.93
2019-03-22T12:31:09.803Z,1010.99
2019-03-22T12:32:09.773Z,1010.99
2019-03-22T12:33:09.767Z,1010.95
2019-03-22T12:34:09.754Z,1010.96
2019-03-22T12:35:09.737Z,1010.94
2019-03-22T12:36:09.729Z,1010.85
2019-03-22T12:37:09.733Z,1010.80
2019-03-22T12:38:09.714Z,1010.86
2019-03-22T12:39:09.700Z,1010.85
2019-03-22T12:40:09.692Z,1010.81
2019-03-22T12:41:09.676Z,1010.81
2019-03-22T12:42:09.676Z,1010.78
2019-03-22T12:43:09.654Z,1010.78
2019-03-22T12:44:09.656Z,1010.69
2019-03-22T12:45:09.635Z,1010.66
2019-03-22T12:46:09.628Z,1010.67
2019-03-22T12:47:09.628Z,1010.67
2019-03-22T12:48:09.603Z,1010.59
2019-03-22T12:49:09.594Z,1010.59
2019-03-22T12:50:09.577Z,1010.64
2019-03-22T12:51:09.572Z,1010.59
2019-03-22T12:52:09.587Z,1010.62
2019-03-22T12:53:09.581Z,1010.63
2019-03-22T12:54:09.540Z,1010.53
2019-03-22T12:55:09.549Z,1010.50
2019-03-22T12:56:09.521Z,1010.49
2019-03-22T12:57:09.508Z,1010.49
2019-03-22T12:58:09.516Z,1010.45
2019-03-22T12:59:09.490Z,1010.46
2019-03-22T13:00:09.486Z,1010.48
2019-03-22T13:01:10.357Z,1010.48
2019-03-22T13:02:09.560Z,1010.50
2019-03-22T13:03:09.470Z,1010.42
2019-03-22T13:04:09.435Z,1010.36
2019-03-22T13:05:09.422Z,1010.43
2019-03-22T13:06:09.421Z,1010.41
2019-03-22T13:07:09.412Z,1010.34
2019-03-22T13:08:09.389Z,1010.34
2019-03-22T13:09:09.400Z,1010.30
2019-03-22T13:10:09.372Z,1010.36
2019-03-22T13:11:09.361Z,1010.29
2019-03-22T13:12:09.348Z,1010.28
2019-03-22T13:13:09.347Z,1010.30
2019-03-22T13:14:09.332Z,1010.24
2019-03-22T13:15:09.330Z,1010.24
2019-03-22T13:16:09.308Z,1010.22
2019-03-22T13:17:09.296Z,1010.24
2019-03-22T13:18:09.305Z,1010.20
2019-03-22T13:19:09.327Z,1010.27
2019-03-22T13:20:09.296Z,1010.17
2019-03-22T13:21:09.256Z,1010.23
2019-03-22T13:22:09.240Z,1010.18
2019-03-22T13:23:09.238Z,1010.22
2019-03-22T13:24:09.238Z,1010.13
2019-03-22T13:25:09.223Z,1010.15
2019-03-22T13:26:09.198Z,1010.12
2019-03-22T13:27:09.188Z,1010.11
2019-03-22T13:28:09.184Z,1010.12
2019-03-22T13:29:09.179Z,1010.06
2019-03-22T13:30:09.184Z,1010.08
2019-03-22T13:31:09.148Z,1010.08
2019-03-22T13:32:09.134Z,1010.06
2019-03-22T13:33:09.126Z,1010.14
2019-03-22T13:34:09.119Z,1010.06
2019-03-22T13:35:09.108Z,1010.04
2019-03-22T13:36:09.128Z,1010.05
2019-03-22T13:37:09.084Z,1010.07
2019-03-22T13:38:09.071Z,1009.97
2019-03-22T13:39:09.066Z,1010.03
2019-03-22T13:40:09.046Z,1010.00
2019-03-22T13:41:09.039Z,1009.98
2019-03-22T13:42:09.049Z,1009.97
2019-03-22T13:43:09.034Z,1009.96
2019-03-22T13:44:09.023Z,1009.94
2019-03-22T13:45:08.992Z,1009.88
2019-03-22T13:46:08.999Z,1009.87
2019-03-22T13:47:08.968Z,1009.86
2019-03-22T13:48:08.961Z,1009.86
2019-03-22T13:49:08.955Z,1009.85
2019-03-22T13:50:08.940Z,1009.90
2019-03-22T13:51:08.929Z,1009.84
2019-03-22T13:52:08.938Z,1009.75
2019-03-22T13:53:08.904Z,1009.79
2019-03-22T13:54:08.892Z,1009.79
2019-03-22T13:55:08.887Z,1009.80
2019-03-22T13:56:08.876Z,1009.72
2019-03-22T13:57:15.917Z,1009.78
2019-03-22T13:58:08.855Z,1009.73
2019-03-22T13:59:08.843Z,1009.70
2019-03-22T14:00:08.835Z,1009.63
2019-03-22T14:01:08.825Z,1009.69
2019-03-22T14:02:08.827Z,1009.73
2019-03-22T14:03:08.806Z,1009.60
2019-03-22T14:04:08.787Z,1009.68
2019-03-22T14:05:08.779Z,1009.71
2019-03-22T14:06:08.979Z,1009.55
2019-03-22T14:07:09.126Z,1009.67
2019-03-22T14:08:08.910Z,1009.60
2019-03-22T14:09:15.806Z,1009.64
2019-03-22T14:10:15.774Z,1009.65
2019-03-22T14:11:08.716Z,1009.52
2019-03-22T14:12:15.774Z,1009.57
2019-03-22T14:13:15.764Z,1009.61
2019-03-22T14:14:15.728Z,1009.57
2019-03-22T14:15:15.716Z,1009.58
2019-03-22T14:17:23.931Z,1009.53
2019-03-22T14:18:23.936Z,1009.51
2019-03-22T14:19:23.917Z,1009.57
2019-03-22T14:20:23.905Z,1009.62
2019-03-22T14:21:23.996Z,1009.49
2019-03-22T14:22:23.894Z,1009.49
2019-03-22T14:23:23.914Z,1009.54
2019-03-22T14:24:23.871Z,1009.46
2019-03-22T14:25:23.862Z,1009.47
2019-03-22T14:26:23.861Z,1009.41
2019-03-22T14:27:23.840Z,1009.46
2019-03-22T14:28:23.836Z,1009.43
2019-03-22T14:29:24.009Z,1009.43
2019-03-22T14:30:23.790Z,1009.40
2019-03-22T14:31:23.786Z,1009.45
2019-03-22T14:32:23.780Z,1009.40
2019-03-22T14:33:23.775Z,1009.40
2019-03-22T14:34:23.786Z,1009.35
2019-03-22T14:35:23.740Z,1009.33
2019-03-22T14:36:23.736Z,1009.33
2019-03-22T14:37:23.722Z,1009.28
2019-03-22T14:38:23.703Z,1009.27
2019-03-22T14:39:23.755Z,1009.26
2019-03-22T14:40:23.702Z,1009.31
2019-03-22T14:41:23.675Z,1009.26
2019-03-22T14:42:23.667Z,1009.28
2019-03-22T14:43:23.657Z,1009.23
2019-03-22T14:44:25.841Z,1009.23
2019-03-22T14:45:23.655Z,1009.20
2019-03-22T14:46:23.626Z,1009.16
2019-03-22T14:47:23.618Z,1009.21
2019-03-22T14:48:23.606Z,1009.19
2019-03-22T14:49:23.633Z,1009.19
2019-03-22T14:50:23.595Z,1009.24
2019-03-22T14:51:23.583Z,1009.16
2019-03-22T14:52:23.564Z,1009.17
2019-03-22T14:53:23.555Z,1009.17
2019-03-22T14:54:23.540Z,1009.15
2019-03-22T14:55:23.718Z,1009.16
2019-03-22T14:56:23.520Z,1009.17
2019-03-22T14:57:23.506Z,1009.21
2019-03-22T14:58:23.501Z,1009.18
2019-03-22T14:59:23.480Z,1009.11
2019-03-22T15:00:23.489Z,1009.14
2019-03-22T15:01:23.577Z,1009.15
2019-03-22T15:02:23.645Z,1009.13
2019-03-22T15:03:23.479Z,1009.10
2019-03-22T15:04:23.540Z,1009.11
2019-03-22T15:05:23.477Z,1009.08
2019-03-22T15:06:23.427Z,1009.00
2019-03-22T15:07:23.398Z,1009.05
2019-03-22T15:08:23.386Z,1009.03
2019-03-22T15:09:23.374Z,1008.93
2019-03-22T15:10:23.379Z,1008.98
2019-03-22T15:11:23.357Z,1008.98
2019-03-22T15:12:23.364Z,1008.98
2019-03-22T15:13:23.333Z,1008.93
2019-03-22T15:14:23.351Z,1008.92
2019-03-22T15:15:23.354Z,1008.98
2019-03-22T15:16:23.317Z,1008.93
2019-03-22T15:17:23.300Z,1009.00
2019-03-22T15:18:23.314Z,1008.94
2019-03-22T15:19:23.266Z,1008.92
2019-03-22T15:20:23.276Z,1008.88
2019-03-22T15:21:23.247Z,1008.95
2019-03-22T15:22:23.232Z,1008.88
2019-03-22T15:23:23.257Z,1008.87
2019-03-22T15:24:23.223Z,1008.89
2019-03-22T15:25:23.206Z,1008.87
2019-03-22T15:26:23.219Z,1008.92
2019-03-22T15:27:23.181Z,1008.87
2019-03-22T15:28:23.171Z,1008.82
2019-03-22T15:29:23.170Z,1008.84
2019-03-22T15:30:23.162Z,1008.80
2019-03-22T15:31:23.167Z,1008.80
2019-03-22T15:32:23.132Z,1008.88
2019-03-22T15:33:33.978Z,1008.77
2019-03-22T15:34:24.114Z,1008.78
2019-03-22T15:35:23.206Z,1008.76
2019-03-22T15:36:23.113Z,1008.81
2019-03-22T15:37:23.245Z,1008.79
2019-03-22T15:38:23.158Z,1008.82
2019-03-22T15:39:23.180Z,1008.73
2019-03-22T15:40:23.145Z,1008.77
2019-03-22T15:41:23.053Z,1008.74
2019-03-22T15:42:23.063Z,1008.75
2019-03-22T15:43:23.020Z,1008.68
2019-03-22T15:45:22.993Z,1008.73
2019-03-22T15:46:22.993Z,1008.70
2019-03-22T15:47:22.984Z,1008.68
2019-03-22T15:48:22.968Z,1008.65
2019-03-22T15:49:22.948Z,1008.64
2019-03-22T15:50:22.943Z,1008.66
2019-03-22T15:51:22.942Z,1008.71
2019-03-22T15:52:22.917Z,1008.69
2019-03-22T15:53:22.924Z,1008.61
2019-03-22T15:54:22.891Z,1008.58
2019-03-22T15:55:22.887Z,1008.68
2019-03-22T15:56:22.883Z,1008.66
2019-03-22T15:57:22.886Z,1008.64
2019-03-22T15:58:22.880Z,1008.58
2019-03-22T15:59:22.840Z,1008.65
2019-03-22T16:00:22.831Z,1008.63
2019-03-22T16:01:22.819Z,1008.60
2019-03-22T16:02:22.812Z,1008.60
2019-03-22T16:03:22.811Z,1008.65
2019-03-22T16:04:22.809Z,1008.56
2019-03-22T16:05:22.776Z,1008.60
2019-03-22T16:06:22.761Z,1008.58
2019-03-22T16:07:22.765Z,1008.64
2019-03-22T16:08:22.743Z,1008.66
2019-03-22T16:09:22.751Z,1008.60
2019-03-22T16:10:22.723Z,1008.59
2019-03-22T16:11:22.709Z,1008.57
2019-03-22T16:12:22.707Z,1008.60
2019-03-22T16:13:22.688Z,1008.66
2019-03-22T16:14:22.692Z,1008.58
2019-03-22T16:15:22.673Z,1008.59
2019-03-22T16:16:22.655Z,1008.56
2019-03-22T16:17:22.644Z,1008.56
2019-03-22T16:18:22.632Z,1008.57
2019-03-22T16:19:22.648Z,1008.62
2019-03-22T16:20:22.639Z,1008.58
2019-03-22T16:21:22.602Z,1008.62
2019-03-22T16:22:22.592Z,1008.55
2019-03-22T16:23:22.583Z,1008.59
2019-03-22T16:24:22.572Z,1008.55
2019-03-22T16:25:22.574Z,1008.65
2019-03-22T16:26:22.552Z,1008.53
2019-03-22T16:27:22.538Z,1008.56
2019-03-22T16:28:22.530Z,1008.55
2019-03-22T16:29:22.585Z,1008.57
2019-03-22T16:30:22.520Z,1008.59
2019-03-22T16:31:22.557Z,1008.61
2019-03-22T16:32:22.502Z,1008.63
2019-03-22T16:33:22.469Z,1008.57
2019-03-22T16:34:22.460Z,1008.69
2019-03-22T16:35:22.458Z,1008.64
2019-03-22T16:36:22.439Z,1008.61
2019-03-22T16:37:22.443Z,1008.60
2019-03-22T16:38:22.416Z,1008.61
2019-03-22T16:39:22.407Z,1008.60
2019-03-22T16:40:24.516Z,1008.62
2019-03-22T16:41:22.386Z,1008.63
2019-03-22T16:42:22.375Z,1008.59
2019-03-22T16:43:22.365Z,1008.63
2019-03-22T16:44:22.351Z,1008.56
2019-03-22T16:45:22.359Z,1008.60
2019-03-22T16:46:22.325Z,1008.60
2019-03-22T16:47:22.323Z,1008.57
2019-03-22T16:48:22.306Z,1008.57
2019-03-22T16:49:22.297Z,1008.60
2019-03-22T16:50:22.280Z,1008.55
2019-03-22T16:51:22.291Z,1008.56
2019-03-22T16:52:22.279Z,1008.56
2019-03-22T16:53:22.255Z,1008.50
2019-03-22T16:54:22.250Z,1008.56
2019-03-22T16:55:23.980Z,1008.50
2019-03-22T16:56:22.217Z,1008.53
2019-03-22T16:57:22.232Z,1008.52
2019-03-22T16:58:22.193Z,1008.53
2019-03-22T16:59:22.192Z,1008.49
2019-03-22T17:00:22.203Z,1008.54
2019-03-22T17:01:22.183Z,1008.58
2019-03-22T17:02:22.156Z,1008.57
2019-03-22T17:03:22.142Z,1008.51
2019-03-22T17:04:22.135Z,1008.49
2019-03-22T17:05:22.139Z,1008.51
2019-03-22T17:06:22.140Z,1008.54
2019-03-22T17:07:22.097Z,1008.51
2019-03-22T17:08:22.088Z,1008.53
2019-03-22T17:09:22.078Z,1008.51
2019-03-22T17:10:23.540Z,1008.50